sensor_id;sensor_type;location;lat;lon;timestamp;P1;durP1;ratioP1;P2;durP2;ratioP2
39482;SDS011;25682;48.438;1.482;2023-02-15T00:01:35;12.77;;;9.85;;
39482;SDS011;25682;48.438;1.482;2023-02-15T00:04:01;12.82;;;10.15;;
39482;SDS011;25682;48.438;1.482;2023-02-15T00:06:27;11.93;;;9.48;;
39482;SDS011;25682;48.438;1.482;2023-02-15T00:08:54;12.52;;;9.43;;
39482;SDS011;25682;48.438;1.482;2023-02-15T00:11:20;12.88;;;10.48;;
39482;SDS011;25682;48.438;1.482;2023-02-15T00:14:15;12.38;;;10.05;;
39482;SDS011;25682;48.438;1.482;2023-02-15T00:16:43;12.90;;;10.23;;
39482;SDS011;25682;48.438;1.482;2023-02-15T00:19:10;13.98;;;10.35;;
39482;SDS011;25682;48.438;1.482;2023-02-15T00:21:37;12.98;;;10.00;;
39482;SDS011;25682;48.438;1.482;2023-02-15T00:24:05;13.20;;;10.75;;
39482;SDS011;25682;48.438;1.482;2023-02-15T00:26:31;13.15;;;10.55;;
39482;SDS011;25682;48.438;1.482;2023-02-15T00:28:58;12.38;;;10.18;;
39482;SDS011;25682;48.438;1.482;2023-02-15T00:31:24;12.30;;;9.95;;
39482;SDS011;25682;48.438;1.482;2023-02-15T00:33:50;12.70;;;9.40;;
39482;SDS011;25682;48.438;1.482;2023-02-15T00:36:16;13.70;;;11.07;;
39482;SDS011;25682;48.438;1.482;2023-02-15T00:38:42;14.55;;;10.60;;
39482;SDS011;25682;48.438;1.482;2023-02-15T00:41:08;16.63;;;11.40;;
39482;SDS011;25682;48.438;1.482;2023-02-15T00:43:34;15.65;;;10.10;;
39482;SDS011;25682;48.438;1.482;2023-02-15T00:46:01;15.60;;;10.82;;
39482;SDS011;25682;48.438;1.482;2023-02-15T00:48:28;12.18;;;9.25;;
39482;SDS011;25682;48.438;1.482;2023-02-15T00:50:55;15.52;;;10.85;;
39482;SDS011;25682;48.438;1.482;2023-02-15T00:53:23;12.02;;;9.90;;
39482;SDS011;25682;48.438;1.482;2023-02-15T00:55:49;14.52;;;11.13;;
39482;SDS011;25682;48.438;1.482;2023-02-15T00:58:15;13.38;;;10.45;;
39482;SDS011;25682;48.438;1.482;2023-02-15T01:00:45;13.65;;;10.70;;
39482;SDS011;25682;48.438;1.482;2023-02-15T01:03:12;14.57;;;11.70;;
39482;SDS011;25682;48.438;1.482;2023-02-15T01:05:39;11.65;;;10.15;;
39482;SDS011;25682;48.438;1.482;2023-02-15T01:08:05;17.00;;;10.82;;
39482;SDS011;25682;48.438;1.482;2023-02-15T01:10:31;13.82;;;11.00;;
39482;SDS011;25682;48.438;1.482;2023-02-15T01:12:58;16.42;;;11.35;;
39482;SDS011;25682;48.438;1.482;2023-02-15T01:15:24;11.88;;;10.07;;
39482;SDS011;25682;48.438;1.482;2023-02-15T01:17:49;13.90;;;10.75;;
39482;SDS011;25682;48.438;1.482;2023-02-15T01:20:23;12.95;;;11.00;;
39482;SDS011;25682;48.438;1.482;2023-02-15T01:22:50;14.75;;;10.65;;
39482;SDS011;25682;48.438;1.482;2023-02-15T01:25:17;11.45;;;9.57;;
39482;SDS011;25682;48.438;1.482;2023-02-15T01:27:43;12.57;;;10.60;;
39482;SDS011;25682;48.438;1.482;2023-02-15T01:30:10;13.98;;;10.90;;
39482;SDS011;25682;48.438;1.482;2023-02-15T01:32:36;12.65;;;9.73;;
39482;SDS011;25682;48.438;1.482;2023-02-15T01:35:02;13.00;;;10.75;;
39482;SDS011;25682;48.438;1.482;2023-02-15T01:37:29;12.55;;;10.73;;
39482;SDS011;25682;48.438;1.482;2023-02-15T01:39:56;13.57;;;10.55;;
39482;SDS011;25682;48.438;1.482;2023-02-15T01:42:25;16.35;;;11.70;;
39482;SDS011;25682;48.438;1.482;2023-02-15T01:44:53;13.82;;;10.20;;
39482;SDS011;25682;48.438;1.482;2023-02-15T01:53:24;14.60;;;10.45;;
39482;SDS011;25682;48.438;1.482;2023-02-15T01:55:57;12.80;;;9.98;;
39482;SDS011;25682;48.438;1.482;2023-02-15T01:58:27;14.30;;;10.68;;
39482;SDS011;25682;48.438;1.482;2023-02-15T02:00:54;14.77;;;11.80;;
39482;SDS011;25682;48.438;1.482;2023-02-15T02:03:31;12.77;;;10.15;;
39482;SDS011;25682;48.438;1.482;2023-02-15T02:06:17;13.98;;;10.15;;
39482;SDS011;25682;48.438;1.482;2023-02-15T02:08:44;14.52;;;10.05;;
39482;SDS011;25682;48.438;1.482;2023-02-15T02:11:10;12.63;;;10.60;;
39482;SDS011;25682;48.438;1.482;2023-02-15T02:13:38;14.05;;;11.02;;
39482;SDS011;25682;48.438;1.482;2023-02-15T02:16:10;13.57;;;10.35;;
39482;SDS011;25682;48.438;1.482;2023-02-15T02:18:51;14.00;;;11.15;;
39482;SDS011;25682;48.438;1.482;2023-02-15T02:29:42;14.73;;;11.57;;
39482;SDS011;25682;48.438;1.482;2023-02-15T02:42:59;14.05;;;11.02;;
39482;SDS011;25682;48.438;1.482;2023-02-15T02:45:41;14.00;;;11.15;;
39482;SDS011;25682;48.438;1.482;2023-02-15T02:48:18;14.07;;;11.13;;
39482;SDS011;25682;48.438;1.482;2023-02-15T02:50:48;13.38;;;10.98;;
39482;SDS011;25682;48.438;1.482;2023-02-15T02:53:13;15.75;;;11.73;;
39482;SDS011;25682;48.438;1.482;2023-02-15T02:58:31;14.07;;;11.25;;
39482;SDS011;25682;48.438;1.482;2023-02-15T03:01:09;14.65;;;11.77;;
39482;SDS011;25682;48.438;1.482;2023-02-15T03:03:41;13.93;;;10.80;;
39482;SDS011;25682;48.438;1.482;2023-02-15T03:06:10;13.90;;;10.88;;
39482;SDS011;25682;48.438;1.482;2023-02-15T03:08:42;13.48;;;10.95;;
39482;SDS011;25682;48.438;1.482;2023-02-15T03:11:12;11.93;;;10.27;;
39482;SDS011;25682;48.438;1.482;2023-02-15T03:13:38;16.52;;;11.85;;
39482;SDS011;25682;48.438;1.482;2023-02-15T03:16:04;13.57;;;10.48;;
39482;SDS011;25682;48.438;1.482;2023-02-15T03:18:51;14.35;;;11.45;;
39482;SDS011;25682;48.438;1.482;2023-02-15T03:21:48;13.07;;;10.90;;
39482;SDS011;25682;48.438;1.482;2023-02-15T03:24:32;15.50;;;11.73;;
39482;SDS011;25682;48.438;1.482;2023-02-15T03:27:16;12.20;;;10.15;;
39482;SDS011;25682;48.438;1.482;2023-02-15T03:29:48;14.70;;;11.48;;
39482;SDS011;25682;48.438;1.482;2023-02-15T03:32:19;13.57;;;11.07;;
39482;SDS011;25682;48.438;1.482;2023-02-15T03:34:46;14.35;;;11.40;;
39482;SDS011;25682;48.438;1.482;2023-02-15T03:37:18;13.90;;;10.90;;
39482;SDS011;25682;48.438;1.482;2023-02-15T03:43:04;13.30;;;10.75;;
39482;SDS011;25682;48.438;1.482;2023-02-15T03:45:52;13.35;;;10.68;;
39482;SDS011;25682;48.438;1.482;2023-02-15T03:48:32;14.23;;;10.45;;
39482;SDS011;25682;48.438;1.482;2023-02-15T03:51:05;14.57;;;11.02;;
39482;SDS011;25682;48.438;1.482;2023-02-15T03:53:58;13.20;;;10.25;;
39482;SDS011;25682;48.438;1.482;2023-02-15T03:56:29;14.75;;;11.10;;
39482;SDS011;25682;48.438;1.482;2023-02-15T03:58:57;14.55;;;10.65;;
39482;SDS011;25682;48.438;1.482;2023-02-15T04:01:52;14.43;;;10.52;;
39482;SDS011;25682;48.438;1.482;2023-02-15T04:04:45;12.27;;;10.38;;
39482;SDS011;25682;48.438;1.482;2023-02-15T04:07:11;11.75;;;9.70;;
39482;SDS011;25682;48.438;1.482;2023-02-15T04:09:37;12.38;;;10.45;;
39482;SDS011;25682;48.438;1.482;2023-02-15T04:12:21;14.70;;;11.70;;
39482;SDS011;25682;48.438;1.482;2023-02-15T04:14:48;12.32;;;10.23;;
39482;SDS011;25682;48.438;1.482;2023-02-15T04:17:32;13.57;;;10.73;;
39482;SDS011;25682;48.438;1.482;2023-02-15T04:19:58;13.60;;;9.73;;
39482;SDS011;25682;48.438;1.482;2023-02-15T04:22:41;13.63;;;10.85;;
39482;SDS011;25682;48.438;1.482;2023-02-15T04:25:25;14.75;;;10.98;;
39482;SDS011;25682;48.438;1.482;2023-02-15T04:27:52;14.68;;;10.45;;
39482;SDS011;25682;48.438;1.482;2023-02-15T04:30:20;14.20;;;9.90;;
39482;SDS011;25682;48.438;1.482;2023-02-15T04:32:47;13.40;;;10.52;;
39482;SDS011;25682;48.438;1.482;2023-02-15T04:35:13;12.73;;;10.43;;
39482;SDS011;25682;48.438;1.482;2023-02-15T04:37:40;14.00;;;10.85;;
39482;SDS011;25682;48.438;1.482;2023-02-15T04:40:07;13.48;;;10.93;;
39482;SDS011;25682;48.438;1.482;2023-02-15T04:42:34;12.95;;;10.60;;
39482;SDS011;25682;48.438;1.482;2023-02-15T04:45:00;13.32;;;10.57;;
39482;SDS011;25682;48.438;1.482;2023-02-15T04:47:26;12.57;;;10.20;;
39482;SDS011;25682;48.438;1.482;2023-02-15T04:49:52;13.20;;;10.27;;
39482;SDS011;25682;48.438;1.482;2023-02-15T04:52:17;11.85;;;10.15;;
39482;SDS011;25682;48.438;1.482;2023-02-15T04:54:43;13.45;;;10.68;;
39482;SDS011;25682;48.438;1.482;2023-02-15T04:57:09;13.43;;;10.93;;
39482;SDS011;25682;48.438;1.482;2023-02-15T04:59:35;15.02;;;10.80;;
39482;SDS011;25682;48.438;1.482;2023-02-15T05:02:00;12.55;;;10.07;;
39482;SDS011;25682;48.438;1.482;2023-02-15T05:04:26;14.52;;;10.40;;
39482;SDS011;25682;48.438;1.482;2023-02-15T05:06:52;13.20;;;10.52;;
39482;SDS011;25682;48.438;1.482;2023-02-15T05:09:18;14.27;;;11.88;;
39482;SDS011;25682;48.438;1.482;2023-02-15T05:11:43;13.02;;;10.50;;
39482;SDS011;25682;48.438;1.482;2023-02-15T05:14:09;15.13;;;10.38;;
39482;SDS011;25682;48.438;1.482;2023-02-15T05:16:35;14.95;;;10.30;;
39482;SDS011;25682;48.438;1.482;2023-02-15T05:19:00;14.40;;;10.45;;
39482;SDS011;25682;48.438;1.482;2023-02-15T05:21:26;13.88;;;10.15;;
39482;SDS011;25682;48.438;1.482;2023-02-15T05:23:52;13.07;;;10.40;;
39482;SDS011;25682;48.438;1.482;2023-02-15T05:26:18;14.57;;;10.07;;
39482;SDS011;25682;48.438;1.482;2023-02-15T05:29:04;17.27;;;9.88;;
39482;SDS011;25682;48.438;1.482;2023-02-15T05:31:30;13.90;;;10.15;;
39482;SDS011;25682;48.438;1.482;2023-02-15T05:33:56;14.00;;;10.50;;
39482;SDS011;25682;48.438;1.482;2023-02-15T05:36:22;14.02;;;10.70;;
39482;SDS011;25682;48.438;1.482;2023-02-15T05:38:48;14.50;;;10.23;;
39482;SDS011;25682;48.438;1.482;2023-02-15T05:41:13;15.90;;;10.18;;
39482;SDS011;25682;48.438;1.482;2023-02-15T05:43:39;13.18;;;9.80;;
39482;SDS011;25682;48.438;1.482;2023-02-15T05:46:05;15.88;;;9.95;;
39482;SDS011;25682;48.438;1.482;2023-02-15T05:48:31;12.73;;;10.07;;
39482;SDS011;25682;48.438;1.482;2023-02-15T05:50:58;12.82;;;9.43;;
39482;SDS011;25682;48.438;1.482;2023-02-15T05:53:24;16.45;;;10.38;;
39482;SDS011;25682;48.438;1.482;2023-02-15T05:55:50;14.82;;;10.57;;
39482;SDS011;25682;48.438;1.482;2023-02-15T05:58:16;14.15;;;10.55;;
39482;SDS011;25682;48.438;1.482;2023-02-15T06:00:41;12.27;;;9.90;;
39482;SDS011;25682;48.438;1.482;2023-02-15T06:03:07;12.02;;;9.98;;
39482;SDS011;25682;48.438;1.482;2023-02-15T06:05:33;16.55;;;10.50;;
39482;SDS011;25682;48.438;1.482;2023-02-15T06:07:58;15.35;;;11.30;;
39482;SDS011;25682;48.438;1.482;2023-02-15T06:10:24;14.18;;;10.43;;
39482;SDS011;25682;48.438;1.482;2023-02-15T06:12:49;13.35;;;10.13;;
39482;SDS011;25682;48.438;1.482;2023-02-15T06:15:15;12.60;;;10.35;;
39482;SDS011;25682;48.438;1.482;2023-02-15T06:17:41;15.18;;;10.48;;
39482;SDS011;25682;48.438;1.482;2023-02-15T06:20:07;15.07;;;11.13;;
39482;SDS011;25682;48.438;1.482;2023-02-15T06:22:34;12.45;;;9.98;;
39482;SDS011;25682;48.438;1.482;2023-02-15T06:24:59;13.77;;;10.52;;
39482;SDS011;25682;48.438;1.482;2023-02-15T06:27:26;13.65;;;10.32;;
39482;SDS011;25682;48.438;1.482;2023-02-15T06:29:52;14.63;;;11.48;;
39482;SDS011;25682;48.438;1.482;2023-02-15T06:32:17;14.43;;;10.70;;
39482;SDS011;25682;48.438;1.482;2023-02-15T06:34:43;13.95;;;10.55;;
39482;SDS011;25682;48.438;1.482;2023-02-15T06:37:08;14.63;;;11.15;;
39482;SDS011;25682;48.438;1.482;2023-02-15T06:39:34;13.00;;;10.45;;
39482;SDS011;25682;48.438;1.482;2023-02-15T06:42:00;17.25;;;11.20;;
39482;SDS011;25682;48.438;1.482;2023-02-15T06:44:25;14.23;;;10.98;;
39482;SDS011;25682;48.438;1.482;2023-02-15T06:46:51;14.18;;;10.77;;
39482;SDS011;25682;48.438;1.482;2023-02-15T06:49:16;12.15;;;10.27;;
39482;SDS011;25682;48.438;1.482;2023-02-15T06:51:42;15.07;;;11.25;;
39482;SDS011;25682;48.438;1.482;2023-02-15T06:54:08;17.02;;;11.82;;
39482;SDS011;25682;48.438;1.482;2023-02-15T06:56:33;13.02;;;10.30;;
39482;SDS011;25682;48.438;1.482;2023-02-15T06:58:59;15.20;;;10.63;;
39482;SDS011;25682;48.438;1.482;2023-02-15T07:01:24;13.02;;;10.20;;
39482;SDS011;25682;48.438;1.482;2023-02-15T07:03:50;13.82;;;10.95;;
39482;SDS011;25682;48.438;1.482;2023-02-15T07:06:16;14.95;;;10.82;;
39482;SDS011;25682;48.438;1.482;2023-02-15T07:08:41;15.55;;;10.88;;
39482;SDS011;25682;48.438;1.482;2023-02-15T07:11:07;14.23;;;9.45;;
39482;SDS011;25682;48.438;1.482;2023-02-15T07:13:51;14.63;;;11.55;;
39482;SDS011;25682;48.438;1.482;2023-02-15T07:16:21;18.95;;;11.00;;
39482;SDS011;25682;48.438;1.482;2023-02-15T07:18:46;16.52;;;10.90;;
39482;SDS011;25682;48.438;1.482;2023-02-15T07:21:12;14.65;;;10.77;;
39482;SDS011;25682;48.438;1.482;2023-02-15T07:23:38;33.55;;;13.80;;
39482;SDS011;25682;48.438;1.482;2023-02-15T07:26:05;16.48;;;10.40;;
39482;SDS011;25682;48.438;1.482;2023-02-15T07:28:31;14.32;;;11.23;;
39482;SDS011;25682;48.438;1.482;2023-02-15T07:30:58;22.42;;;11.95;;
39482;SDS011;25682;48.438;1.482;2023-02-15T07:33:25;19.48;;;11.73;;
39482;SDS011;25682;48.438;1.482;2023-02-15T07:35:53;15.82;;;10.55;;
39482;SDS011;25682;48.438;1.482;2023-02-15T07:38:20;15.57;;;11.10;;
39482;SDS011;25682;48.438;1.482;2023-02-15T07:40:46;18.77;;;10.30;;
39482;SDS011;25682;48.438;1.482;2023-02-15T07:43:12;17.13;;;11.27;;
39482;SDS011;25682;48.438;1.482;2023-02-15T07:45:38;19.00;;;11.30;;
39482;SDS011;25682;48.438;1.482;2023-02-15T07:48:05;20.23;;;10.50;;
39482;SDS011;25682;48.438;1.482;2023-02-15T07:50:31;21.33;;;11.18;;
39482;SDS011;25682;48.438;1.482;2023-02-15T07:52:57;13.57;;;10.30;;
39482;SDS011;25682;48.438;1.482;2023-02-15T07:55:23;13.98;;;10.38;;
39482;SDS011;25682;48.438;1.482;2023-02-15T07:57:49;17.95;;;12.38;;
39482;SDS011;25682;48.438;1.482;2023-02-15T08:00:17;16.92;;;12.40;;
39482;SDS011;25682;48.438;1.482;2023-02-15T08:02:49;16.65;;;11.43;;
39482;SDS011;25682;48.438;1.482;2023-02-15T08:05:36;15.40;;;11.45;;
39482;SDS011;25682;48.438;1.482;2023-02-15T08:08:02;18.30;;;11.70;;
39482;SDS011;25682;48.438;1.482;2023-02-15T08:10:28;23.75;;;12.13;;
39482;SDS011;25682;48.438;1.482;2023-02-15T08:13:12;14.70;;;11.20;;
39482;SDS011;25682;48.438;1.482;2023-02-15T08:15:38;18.48;;;11.77;;
39482;SDS011;25682;48.438;1.482;2023-02-15T08:18:03;16.98;;;11.48;;
39482;SDS011;25682;48.438;1.482;2023-02-15T08:20:29;21.20;;;12.52;;
39482;SDS011;25682;48.438;1.482;2023-02-15T08:22:55;17.60;;;11.93;;
39482;SDS011;25682;48.438;1.482;2023-02-15T08:25:20;15.57;;;10.68;;
39482;SDS011;25682;48.438;1.482;2023-02-15T08:27:46;15.88;;;11.82;;
39482;SDS011;25682;48.438;1.482;2023-02-15T08:30:12;15.05;;;11.55;;
39482;SDS011;25682;48.438;1.482;2023-02-15T08:32:39;20.02;;;12.43;;
39482;SDS011;25682;48.438;1.482;2023-02-15T08:35:05;18.50;;;11.07;;
39482;SDS011;25682;48.438;1.482;2023-02-15T08:37:30;16.20;;;12.02;;
39482;SDS011;25682;48.438;1.482;2023-02-15T08:39:56;20.38;;;12.65;;
39482;SDS011;25682;48.438;1.482;2023-02-15T08:42:21;16.88;;;11.30;;
39482;SDS011;25682;48.438;1.482;2023-02-15T08:44:47;18.10;;;12.45;;
39482;SDS011;25682;48.438;1.482;2023-02-15T08:47:15;19.90;;;12.82;;
39482;SDS011;25682;48.438;1.482;2023-02-15T08:49:41;21.83;;;12.57;;
39482;SDS011;25682;48.438;1.482;2023-02-15T08:52:06;21.77;;;12.30;;
39482;SDS011;25682;48.438;1.482;2023-02-15T08:54:32;24.38;;;12.40;;
39482;SDS011;25682;48.438;1.482;2023-02-15T08:56:58;18.90;;;11.65;;
39482;SDS011;25682;48.438;1.482;2023-02-15T08:59:24;19.60;;;12.55;;
39482;SDS011;25682;48.438;1.482;2023-02-15T09:01:51;24.55;;;12.63;;
39482;SDS011;25682;48.438;1.482;2023-02-15T09:04:18;18.70;;;12.35;;
39482;SDS011;25682;48.438;1.482;2023-02-15T09:06:45;23.02;;;11.02;;
39482;SDS011;25682;48.438;1.482;2023-02-15T09:09:11;18.50;;;11.70;;
39482;SDS011;25682;48.438;1.482;2023-02-15T09:11:38;20.88;;;11.35;;
39482;SDS011;25682;48.438;1.482;2023-02-15T09:14:06;23.95;;;14.55;;
39482;SDS011;25682;48.438;1.482;2023-02-15T09:16:34;23.35;;;15.52;;
39482;SDS011;25682;48.438;1.482;2023-02-15T09:19:00;20.52;;;13.15;;
39482;SDS011;25682;48.438;1.482;2023-02-15T09:21:27;17.50;;;12.88;;
39482;SDS011;25682;48.438;1.482;2023-02-15T09:23:58;17.45;;;12.45;;
39482;SDS011;25682;48.438;1.482;2023-02-15T09:26:25;18.90;;;11.60;;
39482;SDS011;25682;48.438;1.482;2023-02-15T09:28:52;19.98;;;11.68;;
39482;SDS011;25682;48.438;1.482;2023-02-15T09:31:21;23.90;;;13.68;;
39482;SDS011;25682;48.438;1.482;2023-02-15T09:33:47;18.83;;;12.43;;
39482;SDS011;25682;48.438;1.482;2023-02-15T09:38:43;22.75;;;11.93;;
39482;SDS011;25682;48.438;1.482;2023-02-15T09:43:55;17.17;;;11.13;;
39482;SDS011;25682;48.438;1.482;2023-02-15T09:46:39;14.63;;;11.02;;
39482;SDS011;25682;48.438;1.482;2023-02-15T09:49:11;17.08;;;11.40;;
39482;SDS011;25682;48.438;1.482;2023-02-15T09:51:46;17.63;;;11.68;;
39482;SDS011;25682;48.438;1.482;2023-02-15T09:57:03;17.20;;;11.37;;
39482;SDS011;25682;48.438;1.482;2023-02-15T10:15:00;13.77;;;10.77;;
39482;SDS011;25682;48.438;1.482;2023-02-15T10:17:48;14.77;;;10.77;;
39482;SDS011;25682;48.438;1.482;2023-02-15T10:26:21;23.92;;;18.45;;
39482;SDS011;25682;48.438;1.482;2023-02-15T10:28:49;18.52;;;15.52;;
39482;SDS011;25682;48.438;1.482;2023-02-15T10:34:01;18.13;;;14.23;;
39482;SDS011;25682;48.438;1.482;2023-02-15T10:47:50;14.77;;;11.93;;
39482;SDS011;25682;48.438;1.482;2023-02-15T11:05:45;13.63;;;11.13;;
39482;SDS011;25682;48.438;1.482;2023-02-15T11:08:15;14.88;;;11.50;;
39482;SDS011;25682;48.438;1.482;2023-02-15T11:10:43;17.45;;;10.93;;
39482;SDS011;25682;48.438;1.482;2023-02-15T11:13:17;18.60;;;11.10;;
39482;SDS011;25682;48.438;1.482;2023-02-15T11:15:48;22.23;;;11.13;;
39482;SDS011;25682;48.438;1.482;2023-02-15T11:18:23;19.63;;;11.25;;
39482;SDS011;25682;48.438;1.482;2023-02-15T11:20:55;17.75;;;10.38;;
39482;SDS011;25682;48.438;1.482;2023-02-15T11:23:22;17.95;;;10.10;;
39482;SDS011;25682;48.438;1.482;2023-02-15T11:25:59;18.55;;;9.88;;
39482;SDS011;25682;48.438;1.482;2023-02-15T11:28:33;20.17;;;10.63;;
39482;SDS011;25682;48.438;1.482;2023-02-15T11:31:02;18.13;;;11.00;;
39482;SDS011;25682;48.438;1.482;2023-02-15T11:33:36;19.00;;;9.82;;
39482;SDS011;25682;48.438;1.482;2023-02-15T11:36:08;18.45;;;8.85;;
39482;SDS011;25682;48.438;1.482;2023-02-15T11:38:35;18.38;;;9.63;;
39482;SDS011;25682;48.438;1.482;2023-02-15T11:41:09;15.07;;;9.75;;
39482;SDS011;25682;48.438;1.482;2023-02-15T11:46:40;12.25;;;8.40;;
39482;SDS011;25682;48.438;1.482;2023-02-15T11:49:22;16.10;;;7.93;;
39482;SDS011;25682;48.438;1.482;2023-02-15T11:51:49;17.35;;;8.63;;
39482;SDS011;25682;48.438;1.482;2023-02-15T11:54:20;33.30;;;8.93;;
39482;SDS011;25682;48.438;1.482;2023-02-15T11:56:47;15.77;;;8.50;;
39482;SDS011;25682;48.438;1.482;2023-02-15T11:59:16;14.57;;;8.93;;
39482;SDS011;25682;48.438;1.482;2023-02-15T12:01:44;16.08;;;8.68;;
39482;SDS011;25682;48.438;1.482;2023-02-15T12:06:53;15.50;;;8.55;;
39482;SDS011;25682;48.438;1.482;2023-02-15T12:09:25;14.40;;;7.95;;
39482;SDS011;25682;48.438;1.482;2023-02-15T12:11:55;14.50;;;8.70;;
39482;SDS011;25682;48.438;1.482;2023-02-15T12:14:47;13.55;;;7.68;;
39482;SDS011;25682;48.438;1.482;2023-02-15T12:17:14;14.38;;;7.05;;
39482;SDS011;25682;48.438;1.482;2023-02-15T12:19:41;16.40;;;7.45;;
39482;SDS011;25682;48.438;1.482;2023-02-15T12:22:25;11.88;;;7.30;;
39482;SDS011;25682;48.438;1.482;2023-02-15T12:24:55;10.23;;;7.35;;
39482;SDS011;25682;48.438;1.482;2023-02-15T12:27:32;8.45;;;6.50;;
39482;SDS011;25682;48.438;1.482;2023-02-15T12:29:59;20.17;;;6.72;;
39482;SDS011;25682;48.438;1.482;2023-02-15T12:32:31;16.88;;;7.53;;
39482;SDS011;25682;48.438;1.482;2023-02-15T12:35:00;13.45;;;6.70;;
39482;SDS011;25682;48.438;1.482;2023-02-15T12:37:28;10.80;;;7.80;;
39482;SDS011;25682;48.438;1.482;2023-02-15T12:40:00;8.68;;;5.95;;
39482;SDS011;25682;48.438;1.482;2023-02-15T12:42:27;15.65;;;7.43;;
39482;SDS011;25682;48.438;1.482;2023-02-15T12:47:26;15.10;;;6.38;;
39482;SDS011;25682;48.438;1.482;2023-02-15T12:50:15;9.57;;;7.40;;
39482;SDS011;25682;48.438;1.482;2023-02-15T12:52:45;12.45;;;10.13;;
39482;SDS011;25682;48.438;1.482;2023-02-15T12:57:44;13.10;;;7.20;;
39482;SDS011;25682;48.438;1.482;2023-02-15T13:07:44;9.07;;;5.97;;
39482;SDS011;25682;48.438;1.482;2023-02-15T13:10:25;9.50;;;5.78;;
39482;SDS011;25682;48.438;1.482;2023-02-15T13:12:51;8.80;;;5.97;;
39482;SDS011;25682;48.438;1.482;2023-02-15T13:15:23;6.95;;;5.57;;
39482;SDS011;25682;48.438;1.482;2023-02-15T13:17:50;9.18;;;5.72;;
39482;SDS011;25682;48.438;1.482;2023-02-15T13:20:17;7.53;;;5.32;;
39482;SDS011;25682;48.438;1.482;2023-02-15T13:22:44;8.48;;;5.32;;
39482;SDS011;25682;48.438;1.482;2023-02-15T13:25:13;7.60;;;5.15;;
39482;SDS011;25682;48.438;1.482;2023-02-15T13:27:41;6.07;;;4.32;;
39482;SDS011;25682;48.438;1.482;2023-02-15T13:30:13;6.65;;;4.72;;
39482;SDS011;25682;48.438;1.482;2023-02-15T13:32:43;5.63;;;4.53;;
39482;SDS011;25682;48.438;1.482;2023-02-15T13:35:14;7.18;;;5.35;;
39482;SDS011;25682;48.438;1.482;2023-02-15T13:40:15;6.80;;;4.88;;
39482;SDS011;25682;48.438;1.482;2023-02-15T13:47:58;6.72;;;4.45;;
39482;SDS011;25682;48.438;1.482;2023-02-15T13:53:15;9.40;;;5.43;;
39482;SDS011;25682;48.438;1.482;2023-02-15T13:55:51;4.97;;;3.65;;
39482;SDS011;25682;48.438;1.482;2023-02-15T14:01:05;23.75;;;6.32;;
39482;SDS011;25682;48.438;1.482;2023-02-15T14:19:43;8.48;;;4.13;;
39482;SDS011;25682;48.438;1.482;2023-02-15T14:22:14;8.93;;;4.07;;
39482;SDS011;25682;48.438;1.482;2023-02-15T14:27:27;7.60;;;3.60;;
39482;SDS011;25682;48.438;1.482;2023-02-15T14:29:59;10.85;;;4.18;;
39482;SDS011;25682;48.438;1.482;2023-02-15T14:32:35;9.52;;;3.83;;
39482;SDS011;25682;48.438;1.482;2023-02-15T14:35:03;9.40;;;3.90;;
39482;SDS011;25682;48.438;1.482;2023-02-15T14:40:01;8.52;;;3.85;;
39482;SDS011;25682;48.438;1.482;2023-02-15T14:43:00;7.93;;;3.70;;
39482;SDS011;25682;48.438;1.482;2023-02-15T14:46:19;4.82;;;3.30;;
39482;SDS011;25682;48.438;1.482;2023-02-15T14:48:30;11.48;;;3.60;;
39482;SDS011;25682;48.438;1.482;2023-02-15T14:50:57;9.60;;;3.60;;
39482;SDS011;25682;48.438;1.482;2023-02-15T14:56:37;6.53;;;3.33;;
39482;SDS011;25682;48.438;1.482;2023-02-15T15:01:28;4.07;;;3.63;;
39482;SDS011;25682;48.438;1.482;2023-02-15T15:03:59;6.25;;;3.38;;
39482;SDS011;25682;48.438;1.482;2023-02-15T15:06:27;6.28;;;3.30;;
39482;SDS011;25682;48.438;1.482;2023-02-15T15:08:57;7.03;;;3.28;;
39482;SDS011;25682;48.438;1.482;2023-02-15T15:13:57;5.57;;;3.42;;
39482;SDS011;25682;48.438;1.482;2023-02-15T15:19:11;9.82;;;3.28;;
39482;SDS011;25682;48.438;1.482;2023-02-15T15:29:41;6.68;;;3.85;;
39482;SDS011;25682;48.438;1.482;2023-02-15T15:32:08;9.13;;;3.13;;
39482;SDS011;25682;48.438;1.482;2023-02-15T15:34:45;6.57;;;3.17;;
39482;SDS011;25682;48.438;1.482;2023-02-15T15:47:58;9.38;;;3.47;;
39482;SDS011;25682;48.438;1.482;2023-02-15T15:50:27;15.10;;;3.70;;
39482;SDS011;25682;48.438;1.482;2023-02-15T15:52:54;6.25;;;3.38;;
39482;SDS011;25682;48.438;1.482;2023-02-15T15:55:25;7.05;;;3.72;;
39482;SDS011;25682;48.438;1.482;2023-02-15T15:58:02;14.02;;;4.10;;
39482;SDS011;25682;48.438;1.482;2023-02-15T16:00:31;13.43;;;3.85;;
39482;SDS011;25682;48.438;1.482;2023-02-15T16:02:58;8.77;;;3.55;;
39482;SDS011;25682;48.438;1.482;2023-02-15T16:05:24;17.63;;;4.30;;
39482;SDS011;25682;48.438;1.482;2023-02-15T16:07:50;7.82;;;3.78;;
39482;SDS011;25682;48.438;1.482;2023-02-15T16:12:52;7.05;;;3.60;;
39482;SDS011;25682;48.438;1.482;2023-02-15T16:15:23;10.23;;;3.78;;
39482;SDS011;25682;48.438;1.482;2023-02-15T16:17:54;4.15;;;2.83;;
39482;SDS011;25682;48.438;1.482;2023-02-15T16:20:22;9.07;;;3.25;;
39482;SDS011;25682;48.438;1.482;2023-02-15T16:22:49;8.27;;;3.17;;
39482;SDS011;25682;48.438;1.482;2023-02-15T16:27:43;10.75;;;3.80;;
39482;SDS011;25682;48.438;1.482;2023-02-15T16:30:20;6.65;;;3.67;;
39482;SDS011;25682;48.438;1.482;2023-02-15T16:32:47;7.75;;;3.65;;
39482;SDS011;25682;48.438;1.482;2023-02-15T16:35:17;9.13;;;4.28;;
39482;SDS011;25682;48.438;1.482;2023-02-15T16:37:44;9.75;;;4.05;;
39482;SDS011;25682;48.438;1.482;2023-02-15T16:40:34;9.23;;;3.78;;
39482;SDS011;25682;48.438;1.482;2023-02-15T16:42:57;7.40;;;3.78;;
39482;SDS011;25682;48.438;1.482;2023-02-15T16:45:26;7.78;;;4.28;;
39482;SDS011;25682;48.438;1.482;2023-02-15T16:47:53;9.25;;;3.50;;
39482;SDS011;25682;48.438;1.482;2023-02-15T16:50:26;25.05;;;4.93;;
39482;SDS011;25682;48.438;1.482;2023-02-15T16:52:54;11.60;;;3.88;;
39482;SDS011;25682;48.438;1.482;2023-02-15T16:55:23;8.65;;;4.20;;
39482;SDS011;25682;48.438;1.482;2023-02-15T16:57:49;7.10;;;3.92;;
39482;SDS011;25682;48.438;1.482;2023-02-15T17:00:20;9.52;;;4.22;;
39482;SDS011;25682;48.438;1.482;2023-02-15T17:03:22;23.38;;;4.55;;
39482;SDS011;25682;48.438;1.482;2023-02-15T17:05:47;8.40;;;4.45;;
39482;SDS011;25682;48.438;1.482;2023-02-15T17:13:24;20.15;;;5.25;;
39482;SDS011;25682;48.438;1.482;2023-02-15T17:20:52;8.60;;;4.30;;
39482;SDS011;25682;48.438;1.482;2023-02-15T17:23:29;9.43;;;4.05;;
39482;SDS011;25682;48.438;1.482;2023-02-15T17:25:56;7.22;;;3.95;;
39482;SDS011;25682;48.438;1.482;2023-02-15T17:28:24;11.70;;;4.50;;
39482;SDS011;25682;48.438;1.482;2023-02-15T17:30:51;6.15;;;4.25;;
39482;SDS011;25682;48.438;1.482;2023-02-15T17:33:25;7.90;;;4.85;;
39482;SDS011;25682;48.438;1.482;2023-02-15T17:36:04;7.13;;;4.25;;
39482;SDS011;25682;48.438;1.482;2023-02-15T17:38:30;7.68;;;4.75;;
39482;SDS011;25682;48.438;1.482;2023-02-15T17:40:56;12.20;;;4.82;;
39482;SDS011;25682;48.438;1.482;2023-02-15T17:43:23;9.15;;;5.22;;
39482;SDS011;25682;48.438;1.482;2023-02-15T17:45:49;7.82;;;4.65;;
39482;SDS011;25682;48.438;1.482;2023-02-15T17:48:23;7.20;;;4.20;;
39482;SDS011;25682;48.438;1.482;2023-02-15T17:50:50;10.23;;;4.95;;